sensor_id;sensor_type;location;lat;lon;timestamp;P1;durP1;ratioP1;P2;durP2;ratioP2
66429;SDS011;53242;51.694;10.006;2023-07-24T00:00:05;1.75;;;1.00;;
66429;SDS011;53242;51.694;10.006;2023-07-24T00:02:27;2.25;;;1.10;;
66429;SDS011;53242;51.694;10.006;2023-07-24T00:04:50;2.30;;;1.10;;
66429;SDS011;53242;51.694;10.006;2023-07-24T00:07:12;2.38;;;1.02;;
66429;SDS011;53242;51.694;10.006;2023-07-24T00:09:34;2.17;;;1.10;;
66429;SDS011;53242;51.694;10.006;2023-07-24T00:11:57;2.65;;;1.05;;
66429;SDS011;53242;51.694;10.006;2023-07-24T00:14:19;3.10;;;1.20;;
66429;SDS011;53242;51.694;10.006;2023-07-24T00:16:42;2.10;;;1.15;;
66429;SDS011;53242;51.694;10.006;2023-07-24T00:19:04;1.60;;;0.82;;
66429;SDS011;53242;51.694;10.006;2023-07-24T00:21:27;3.33;;;1.02;;
66429;SDS011;53242;51.694;10.006;2023-07-24T00:23:49;2.40;;;1.30;;
66429;SDS011;53242;51.694;10.006;2023-07-24T00:26:11;1.92;;;1.00;;
66429;SDS011;53242;51.694;10.006;2023-07-24T00:28:34;3.58;;;1.20;;
66429;SDS011;53242;51.694;10.006;2023-07-24T00:30:56;1.67;;;1.10;;
66429;SDS011;53242;51.694;10.006;2023-07-24T00:33:19;2.05;;;1.30;;
66429;SDS011;53242;51.694;10.006;2023-07-24T00:35:41;4.70;;;1.35;;
66429;SDS011;53242;51.694;10.006;2023-07-24T00:38:03;1.52;;;1.00;;
66429;SDS011;53242;51.694;10.006;2023-07-24T00:40:26;2.20;;;0.85;;
66429;SDS011;53242;51.694;10.006;2023-07-24T00:42:48;2.42;;;1.17;;
66429;SDS011;53242;51.694;10.006;2023-07-24T00:45:11;2.33;;;1.25;;
66429;SDS011;53242;51.694;10.006;2023-07-24T00:47:33;2.75;;;1.67;;
66429;SDS011;53242;51.694;10.006;2023-07-24T00:49:55;3.33;;;1.30;;
66429;SDS011;53242;51.694;10.006;2023-07-24T00:52:18;2.90;;;1.50;;
66429;SDS011;53242;51.694;10.006;2023-07-24T00:54:41;2.28;;;1.30;;
66429;SDS011;53242;51.694;10.006;2023-07-24T00:59:28;2.28;;;1.00;;
66429;SDS011;53242;51.694;10.006;2023-07-24T01:01:52;3.03;;;1.25;;
66429;SDS011;53242;51.694;10.006;2023-07-24T01:04:14;2.90;;;1.00;;
66429;SDS011;53242;51.694;10.006;2023-07-24T01:06:37;2.28;;;1.00;;
66429;SDS011;53242;51.694;10.006;2023-07-24T01:08:59;2.65;;;1.42;;
66429;SDS011;53242;51.694;10.006;2023-07-24T01:11:28;3.33;;;1.20;;
66429;SDS011;53242;51.694;10.006;2023-07-24T01:13:59;2.72;;;1.42;;
66429;SDS011;53242;51.694;10.006;2023-07-24T01:16:31;2.17;;;1.10;;
66429;SDS011;53242;51.694;10.006;2023-07-24T01:18:59;2.33;;;1.10;;
66429;SDS011;53242;51.694;10.006;2023-07-24T01:21:29;2.75;;;1.33;;
66429;SDS011;53242;51.694;10.006;2023-07-24T01:26:37;3.50;;;1.40;;
66429;SDS011;53242;51.694;10.006;2023-07-24T01:29:00;3.30;;;1.40;;
66429;SDS011;53242;51.694;10.006;2023-07-24T01:31:22;1.50;;;1.13;;
66429;SDS011;53242;51.694;10.006;2023-07-24T01:33:45;3.05;;;1.35;;
66429;SDS011;53242;51.694;10.006;2023-07-24T01:36:07;1.85;;;1.30;;
66429;SDS011;53242;51.694;10.006;2023-07-24T01:38:31;2.55;;;1.38;;
66429;SDS011;53242;51.694;10.006;2023-07-24T01:40:55;3.15;;;1.45;;
66429;SDS011;53242;51.694;10.006;2023-07-24T01:43:18;2.85;;;1.52;;
66429;SDS011;53242;51.694;10.006;2023-07-24T01:45:41;2.95;;;1.42;;
66429;SDS011;53242;51.694;10.006;2023-07-24T01:48:03;3.47;;;1.40;;
66429;SDS011;53242;51.694;10.006;2023-07-24T01:50:27;3.55;;;1.23;;
66429;SDS011;53242;51.694;10.006;2023-07-24T01:52:49;2.95;;;1.30;;
66429;SDS011;53242;51.694;10.006;2023-07-24T01:55:12;3.53;;;1.63;;
66429;SDS011;53242;51.694;10.006;2023-07-24T01:57:34;4.20;;;1.50;;
66429;SDS011;53242;51.694;10.006;2023-07-24T01:59:56;2.83;;;1.17;;
66429;SDS011;53242;51.694;10.006;2023-07-24T02:02:19;2.15;;;1.20;;
66429;SDS011;53242;51.694;10.006;2023-07-24T02:04:41;3.80;;;1.48;;
66429;SDS011;53242;51.694;10.006;2023-07-24T02:07:04;3.63;;;1.45;;
66429;SDS011;53242;51.694;10.006;2023-07-24T02:09:26;3.85;;;1.50;;
66429;SDS011;53242;51.694;10.006;2023-07-24T02:11:49;3.53;;;1.70;;
66429;SDS011;53242;51.694;10.006;2023-07-24T02:14:12;4.80;;;1.75;;
66429;SDS011;53242;51.694;10.006;2023-07-24T02:18:58;3.73;;;1.30;;
66429;SDS011;53242;51.694;10.006;2023-07-24T02:21:20;3.72;;;1.50;;
66429;SDS011;53242;51.694;10.006;2023-07-24T02:23:42;3.15;;;1.50;;
66429;SDS011;53242;51.694;10.006;2023-07-24T02:26:05;5.32;;;1.50;;
66429;SDS011;53242;51.694;10.006;2023-07-24T02:28:30;2.47;;;1.10;;
66429;SDS011;53242;51.694;10.006;2023-07-24T02:30:52;2.15;;;1.30;;
66429;SDS011;53242;51.694;10.006;2023-07-24T02:33:18;4.53;;;1.20;;
66429;SDS011;53242;51.694;10.006;2023-07-24T02:35:41;2.78;;;1.30;;
66429;SDS011;53242;51.694;10.006;2023-07-24T02:38:03;3.05;;;1.23;;
66429;SDS011;53242;51.694;10.006;2023-07-24T02:40:27;3.28;;;1.38;;
66429;SDS011;53242;51.694;10.006;2023-07-24T02:42:50;3.08;;;1.63;;
66429;SDS011;53242;51.694;10.006;2023-07-24T02:45:12;3.78;;;1.60;;
66429;SDS011;53242;51.694;10.006;2023-07-24T02:47:34;2.40;;;1.30;;
66429;SDS011;53242;51.694;10.006;2023-07-24T02:49:57;4.05;;;1.35;;
66429;SDS011;53242;51.694;10.006;2023-07-24T02:52:19;3.75;;;1.63;;
66429;SDS011;53242;51.694;10.006;2023-07-24T02:54:42;3.50;;;1.42;;
66429;SDS011;53242;51.694;10.006;2023-07-24T02:57:04;4.45;;;1.80;;
66429;SDS011;53242;51.694;10.006;2023-07-24T02:59:27;4.55;;;1.60;;
66429;SDS011;53242;51.694;10.006;2023-07-24T03:01:49;3.20;;;1.60;;
66429;SDS011;53242;51.694;10.006;2023-07-24T03:04:12;3.28;;;1.60;;
66429;SDS011;53242;51.694;10.006;2023-07-24T03:06:34;3.38;;;1.35;;
66429;SDS011;53242;51.694;10.006;2023-07-24T03:08:57;2.83;;;1.40;;
66429;SDS011;53242;51.694;10.006;2023-07-24T03:11:20;5.22;;;1.52;;
66429;SDS011;53242;51.694;10.006;2023-07-24T03:13:42;2.45;;;1.25;;
66429;SDS011;53242;51.694;10.006;2023-07-24T03:16:05;3.45;;;1.50;;
66429;SDS011;53242;51.694;10.006;2023-07-24T03:18:27;2.58;;;1.35;;
66429;SDS011;53242;51.694;10.006;2023-07-24T03:20:50;3.35;;;1.60;;
66429;SDS011;53242;51.694;10.006;2023-07-24T03:23:12;5.03;;;1.40;;
66429;SDS011;53242;51.694;10.006;2023-07-24T03:25:34;5.28;;;1.60;;
66429;SDS011;53242;51.694;10.006;2023-07-24T03:27:57;3.53;;;1.40;;
66429;SDS011;53242;51.694;10.006;2023-07-24T03:30:22;3.97;;;1.63;;
66429;SDS011;53242;51.694;10.006;2023-07-24T03:32:44;4.80;;;1.77;;
66429;SDS011;53242;51.694;10.006;2023-07-24T03:35:06;5.93;;;1.75;;
66429;SDS011;53242;51.694;10.006;2023-07-24T03:37:29;3.30;;;1.60;;
66429;SDS011;53242;51.694;10.006;2023-07-24T03:39:51;3.63;;;1.50;;
66429;SDS011;53242;51.694;10.006;2023-07-24T03:42:27;5.07;;;1.70;;
66429;SDS011;53242;51.694;10.006;2023-07-24T03:44:51;4.53;;;1.60;;
66429;SDS011;53242;51.694;10.006;2023-07-24T03:47:14;3.17;;;1.23;;
66429;SDS011;53242;51.694;10.006;2023-07-24T03:49:36;3.63;;;1.50;;
66429;SDS011;53242;51.694;10.006;2023-07-24T03:51:59;3.33;;;1.58;;
66429;SDS011;53242;51.694;10.006;2023-07-24T03:54:21;3.00;;;1.58;;
66429;SDS011;53242;51.694;10.006;2023-07-24T03:56:44;3.35;;;1.60;;
66429;SDS011;53242;51.694;10.006;2023-07-24T03:59:06;3.05;;;1.50;;
66429;SDS011;53242;51.694;10.006;2023-07-24T04:01:28;5.38;;;1.60;;
66429;SDS011;53242;51.694;10.006;2023-07-24T04:03:51;3.63;;;1.70;;
66429;SDS011;53242;51.694;10.006;2023-07-24T04:06:14;3.25;;;1.40;;
66429;SDS011;53242;51.694;10.006;2023-07-24T04:08:36;3.45;;;1.40;;
66429;SDS011;53242;51.694;10.006;2023-07-24T04:10:59;4.13;;;1.63;;
66429;SDS011;53242;51.694;10.006;2023-07-24T04:13:21;2.03;;;1.40;;
66429;SDS011;53242;51.694;10.006;2023-07-24T04:15:44;2.58;;;1.50;;
66429;SDS011;53242;51.694;10.006;2023-07-24T04:18:07;3.42;;;1.45;;
66429;SDS011;53242;51.694;10.006;2023-07-24T04:20:29;4.13;;;1.65;;
66429;SDS011;53242;51.694;10.006;2023-07-24T04:22:51;4.82;;;1.48;;
66429;SDS011;53242;51.694;10.006;2023-07-24T04:25:14;2.22;;;1.50;;
66429;SDS011;53242;51.694;10.006;2023-07-24T04:27:37;3.65;;;1.50;;
66429;SDS011;53242;51.694;10.006;2023-07-24T04:30:00;3.30;;;1.60;;
66429;SDS011;53242;51.694;10.006;2023-07-24T04:32:22;4.38;;;1.63;;
66429;SDS011;53242;51.694;10.006;2023-07-24T04:34:44;4.20;;;1.50;;
66429;SDS011;53242;51.694;10.006;2023-07-24T04:37:07;4.57;;;1.63;;
66429;SDS011;53242;51.694;10.006;2023-07-24T04:39:29;4.63;;;2.00;;
66429;SDS011;53242;51.694;10.006;2023-07-24T04:41:52;5.00;;;1.58;;
66429;SDS011;53242;51.694;10.006;2023-07-24T04:44:14;4.72;;;1.88;;
66429;SDS011;53242;51.694;10.006;2023-07-24T04:46:36;4.38;;;1.40;;
66429;SDS011;53242;51.694;10.006;2023-07-24T04:48:59;4.38;;;1.70;;
66429;SDS011;53242;51.694;10.006;2023-07-24T04:51:21;4.78;;;1.90;;
66429;SDS011;53242;51.694;10.006;2023-07-24T04:53:44;4.07;;;1.80;;
66429;SDS011;53242;51.694;10.006;2023-07-24T04:56:07;4.32;;;1.55;;
66429;SDS011;53242;51.694;10.006;2023-07-24T04:58:29;3.88;;;1.88;;
66429;SDS011;53242;51.694;10.006;2023-07-24T05:00:52;5.53;;;2.13;;
66429;SDS011;53242;51.694;10.006;2023-07-24T05:03:14;4.15;;;1.60;;
66429;SDS011;53242;51.694;10.006;2023-07-24T05:05:39;3.88;;;1.48;;
66429;SDS011;53242;51.694;10.006;2023-07-24T05:08:01;4.15;;;1.58;;
66429;SDS011;53242;51.694;10.006;2023-07-24T05:10:24;3.38;;;1.60;;
66429;SDS011;53242;51.694;10.006;2023-07-24T05:12:46;3.13;;;1.70;;
66429;SDS011;53242;51.694;10.006;2023-07-24T05:15:09;4.55;;;1.85;;
66429;SDS011;53242;51.694;10.006;2023-07-24T05:17:31;3.55;;;1.50;;
66429;SDS011;53242;51.694;10.006;2023-07-24T05:19:54;4.68;;;1.50;;
66429;SDS011;53242;51.694;10.006;2023-07-24T05:22:16;3.85;;;1.90;;
66429;SDS011;53242;51.694;10.006;2023-07-24T05:24:38;3.17;;;1.50;;
66429;SDS011;53242;51.694;10.006;2023-07-24T05:27:01;4.72;;;1.77;;
66429;SDS011;53242;51.694;10.006;2023-07-24T05:29:23;4.57;;;1.58;;
66429;SDS011;53242;51.694;10.006;2023-07-24T05:31:46;4.05;;;1.65;;
66429;SDS011;53242;51.694;10.006;2023-07-24T05:34:08;4.32;;;1.70;;
66429;SDS011;53242;51.694;10.006;2023-07-24T05:36:30;4.40;;;1.70;;
66429;SDS011;53242;51.694;10.006;2023-07-24T05:38:53;4.13;;;1.80;;
66429;SDS011;53242;51.694;10.006;2023-07-24T05:41:16;5.28;;;1.48;;
66429;SDS011;53242;51.694;10.006;2023-07-24T05:43:38;3.70;;;1.50;;
66429;SDS011;53242;51.694;10.006;2023-07-24T05:46:00;3.63;;;1.65;;
66429;SDS011;53242;51.694;10.006;2023-07-24T05:48:23;4.45;;;1.65;;
66429;SDS011;53242;51.694;10.006;2023-07-24T05:50:46;3.95;;;1.70;;
66429;SDS011;53242;51.694;10.006;2023-07-24T05:53:09;2.70;;;1.42;;
66429;SDS011;53242;51.694;10.006;2023-07-24T05:55:32;4.03;;;1.70;;
66429;SDS011;53242;51.694;10.006;2023-07-24T05:57:54;3.53;;;1.73;;
66429;SDS011;53242;51.694;10.006;2023-07-24T06:00:17;6.45;;;1.70;;
66429;SDS011;53242;51.694;10.006;2023-07-24T06:02:39;5.43;;;1.50;;
66429;SDS011;53242;51.694;10.006;2023-07-24T06:05:02;3.20;;;1.40;;
66429;SDS011;53242;51.694;10.006;2023-07-24T06:07:24;4.82;;;1.98;;
66429;SDS011;53242;51.694;10.006;2023-07-24T06:09:47;4.25;;;1.75;;
66429;SDS011;53242;51.694;10.006;2023-07-24T06:12:09;4.00;;;1.80;;
66429;SDS011;53242;51.694;10.006;2023-07-24T06:14:31;3.70;;;1.90;;
66429;SDS011;53242;51.694;10.006;2023-07-24T06:16:54;3.22;;;1.45;;
66429;SDS011;53242;51.694;10.006;2023-07-24T06:19:16;6.03;;;1.80;;
66429;SDS011;53242;51.694;10.006;2023-07-24T06:21:39;5.05;;;1.90;;
66429;SDS011;53242;51.694;10.006;2023-07-24T06:24:03;7.07;;;1.83;;
66429;SDS011;53242;51.694;10.006;2023-07-24T06:26:25;3.40;;;1.70;;
66429;SDS011;53242;51.694;10.006;2023-07-24T06:28:48;3.67;;;1.65;;
66429;SDS011;53242;51.694;10.006;2023-07-24T06:31:10;5.30;;;1.90;;
66429;SDS011;53242;51.694;10.006;2023-07-24T06:33:32;7.07;;;1.63;;
66429;SDS011;53242;51.694;10.006;2023-07-24T06:35:55;3.88;;;1.58;;
66429;SDS011;53242;51.694;10.006;2023-07-24T06:38:17;7.00;;;1.80;;
66429;SDS011;53242;51.694;10.006;2023-07-24T06:40:40;4.55;;;1.75;;
66429;SDS011;53242;51.694;10.006;2023-07-24T06:43:02;4.22;;;1.60;;
66429;SDS011;53242;51.694;10.006;2023-07-24T06:45:25;4.70;;;1.92;;
66429;SDS011;53242;51.694;10.006;2023-07-24T06:47:47;4.28;;;1.90;;
66429;SDS011;53242;51.694;10.006;2023-07-24T06:50:09;6.13;;;1.73;;
66429;SDS011;53242;51.694;10.006;2023-07-24T06:52:32;4.10;;;1.75;;
66429;SDS011;53242;51.694;10.006;2023-07-24T06:54:55;4.07;;;1.58;;
66429;SDS011;53242;51.694;10.006;2023-07-24T06:57:17;4.03;;;1.90;;
66429;SDS011;53242;51.694;10.006;2023-07-24T06:59:40;5.80;;;1.80;;
66429;SDS011;53242;51.694;10.006;2023-07-24T07:02:02;3.70;;;1.55;;
66429;SDS011;53242;51.694;10.006;2023-07-24T07:04:24;5.25;;;2.05;;
66429;SDS011;53242;51.694;10.006;2023-07-24T07:06:47;4.57;;;2.10;;
66429;SDS011;53242;51.694;10.006;2023-07-24T07:09:10;5.32;;;2.20;;
66429;SDS011;53242;51.694;10.006;2023-07-24T07:11:32;5.15;;;1.70;;
66429;SDS011;53242;51.694;10.006;2023-07-24T07:13:54;5.05;;;2.17;;
66429;SDS011;53242;51.694;10.006;2023-07-24T07:16:17;4.78;;;2.03;;
66429;SDS011;53242;51.694;10.006;2023-07-24T07:18:40;4.95;;;2.00;;
66429;SDS011;53242;51.694;10.006;2023-07-24T07:21:03;4.53;;;2.10;;
66429;SDS011;53242;51.694;10.006;2023-07-24T07:23:26;5.15;;;2.10;;
66429;SDS011;53242;51.694;10.006;2023-07-24T07:25:48;4.22;;;2.10;;
66429;SDS011;53242;51.694;10.006;2023-07-24T07:30:35;4.65;;;1.80;;
66429;SDS011;53242;51.694;10.006;2023-07-24T07:32:57;4.53;;;2.08;;
66429;SDS011;53242;51.694;10.006;2023-07-24T07:35:20;4.35;;;1.90;;
66429;SDS011;53242;51.694;10.006;2023-07-24T07:37:42;5.43;;;2.00;;
66429;SDS011;53242;51.694;10.006;2023-07-24T07:40:05;5.45;;;2.30;;
66429;SDS011;53242;51.694;10.006;2023-07-24T07:42:28;6.18;;;2.35;;
66429;SDS011;53242;51.694;10.006;2023-07-24T07:44:50;5.45;;;2.25;;
66429;SDS011;53242;51.694;10.006;2023-07-24T07:47:13;6.00;;;1.70;;
66429;SDS011;53242;51.694;10.006;2023-07-24T07:49:35;4.13;;;1.90;;
66429;SDS011;53242;51.694;10.006;2023-07-24T07:51:58;7.65;;;2.40;;
66429;SDS011;53242;51.694;10.006;2023-07-24T07:54:20;5.50;;;2.40;;
66429;SDS011;53242;51.694;10.006;2023-07-24T07:56:43;5.13;;;2.00;;
66429;SDS011;53242;51.694;10.006;2023-07-24T07:59:05;6.05;;;2.20;;
66429;SDS011;53242;51.694;10.006;2023-07-24T08:01:27;7.57;;;2.60;;
66429;SDS011;53242;51.694;10.006;2023-07-24T08:03:50;6.63;;;2.20;;
66429;SDS011;53242;51.694;10.006;2023-07-24T08:06:12;5.43;;;2.40;;
66429;SDS011;53242;51.694;10.006;2023-07-24T08:08:35;5.95;;;2.85;;
66429;SDS011;53242;51.694;10.006;2023-07-24T08:10:57;6.20;;;2.00;;
66429;SDS011;53242;51.694;10.006;2023-07-24T08:13:20;5.97;;;2.20;;
66429;SDS011;53242;51.694;10.006;2023-07-24T08:15:42;5.78;;;2.08;;
66429;SDS011;53242;51.694;10.006;2023-07-24T08:18:05;5.22;;;2.20;;
66429;SDS011;53242;51.694;10.006;2023-07-24T08:20:27;8.25;;;2.65;;
66429;SDS011;53242;51.694;10.006;2023-07-24T08:22:50;4.55;;;1.90;;
66429;SDS011;53242;51.694;10.006;2023-07-24T08:25:12;6.22;;;2.30;;
66429;SDS011;53242;51.694;10.006;2023-07-24T08:27:35;4.85;;;2.05;;
66429;SDS011;53242;51.694;10.006;2023-07-24T08:29:57;8.45;;;2.47;;
66429;SDS011;53242;51.694;10.006;2023-07-24T08:32:19;5.35;;;2.20;;
66429;SDS011;53242;51.694;10.006;2023-07-24T08:34:42;5.18;;;2.40;;
66429;SDS011;53242;51.694;10.006;2023-07-24T08:37:04;4.05;;;2.00;;
66429;SDS011;53242;51.694;10.006;2023-07-24T08:39:27;6.40;;;2.40;;
66429;SDS011;53242;51.694;10.006;2023-07-24T08:41:50;5.03;;;2.33;;
66429;SDS011;53242;51.694;10.006;2023-07-24T08:44:12;6.55;;;2.30;;
66429;SDS011;53242;51.694;10.006;2023-07-24T08:46:36;8.93;;;2.20;;
66429;SDS011;53242;51.694;10.006;2023-07-24T08:49:00;9.48;;;2.25;;
66429;SDS011;53242;51.694;10.006;2023-07-24T08:51:23;6.07;;;2.25;;
66429;SDS011;53242;51.694;10.006;2023-07-24T08:53:46;5.55;;;2.28;;
66429;SDS011;53242;51.694;10.006;2023-07-24T08:56:10;4.75;;;1.65;;
66429;SDS011;53242;51.694;10.006;2023-07-24T08:58:36;4.93;;;1.80;;
66429;SDS011;53242;51.694;10.006;2023-07-24T09:01:01;5.63;;;2.15;;
66429;SDS011;53242;51.694;10.006;2023-07-24T09:03:25;4.72;;;1.80;;
66429;SDS011;53242;51.694;10.006;2023-07-24T09:05:48;5.68;;;1.90;;
66429;SDS011;53242;51.694;10.006;2023-07-24T09:08:10;6.78;;;2.03;;
66429;SDS011;53242;51.694;10.006;2023-07-24T09:10:33;5.30;;;2.20;;
66429;SDS011;53242;51.694;10.006;2023-07-24T09:12:55;6.63;;;2.40;;
66429;SDS011;53242;51.694;10.006;2023-07-24T09:15:18;4.47;;;1.73;;
66429;SDS011;53242;51.694;10.006;2023-07-24T09:17:50;4.50;;;1.98;;
66429;SDS011;53242;51.694;10.006;2023-07-24T09:20:13;4.85;;;2.10;;
66429;SDS011;53242;51.694;10.006;2023-07-24T09:22:36;6.70;;;2.05;;
66429;SDS011;53242;51.694;10.006;2023-07-24T09:24:58;6.25;;;1.83;;
66429;SDS011;53242;51.694;10.006;2023-07-24T09:27:24;4.30;;;1.77;;
66429;SDS011;53242;51.694;10.006;2023-07-24T09:29:48;5.50;;;1.83;;
66429;SDS011;53242;51.694;10.006;2023-07-24T09:34:43;5.90;;;2.08;;
66429;SDS011;53242;51.694;10.006;2023-07-24T09:37:06;4.38;;;2.10;;
66429;SDS011;53242;51.694;10.006;2023-07-24T09:39:28;6.18;;;1.70;;
66429;SDS011;53242;51.694;10.006;2023-07-24T09:41:51;5.57;;;1.92;;
66429;SDS011;53242;51.694;10.006;2023-07-24T09:44:14;7.28;;;2.15;;
66429;SDS011;53242;51.694;10.006;2023-07-24T09:46:36;4.65;;;1.95;;
66429;SDS011;53242;51.694;10.006;2023-07-24T09:48:59;3.60;;;2.10;;
66429;SDS011;53242;51.694;10.006;2023-07-24T09:51:21;7.53;;;2.40;;
66429;SDS011;53242;51.694;10.006;2023-07-24T09:53:55;5.78;;;2.17;;
66429;SDS011;53242;51.694;10.006;2023-07-24T09:56:22;5.90;;;1.92;;
66429;SDS011;53242;51.694;10.006;2023-07-24T09:58:46;4.57;;;1.83;;
66429;SDS011;53242;51.694;10.006;2023-07-24T10:01:11;3.10;;;1.42;;
66429;SDS011;53242;51.694;10.006;2023-07-24T10:03:34;4.00;;;1.80;;
66429;SDS011;53242;51.694;10.006;2023-07-24T10:05:58;3.55;;;1.80;;
66429;SDS011;53242;51.694;10.006;2023-07-24T10:08:21;4.78;;;2.10;;
66429;SDS011;53242;51.694;10.006;2023-07-24T10:10:45;5.20;;;2.25;;
66429;SDS011;53242;51.694;10.006;2023-07-24T10:13:07;3.83;;;1.90;;
66429;SDS011;53242;51.694;10.006;2023-07-24T10:15:33;4.82;;;1.95;;
66429;SDS011;53242;51.694;10.006;2023-07-24T10:18:02;5.07;;;2.20;;
66429;SDS011;53242;51.694;10.006;2023-07-24T10:20:32;6.05;;;2.17;;
66429;SDS011;53242;51.694;10.006;2023-07-24T10:23:00;4.28;;;1.90;;
66429;SDS011;53242;51.694;10.006;2023-07-24T10:25:28;4.97;;;1.75;;
66429;SDS011;53242;51.694;10.006;2023-07-24T10:27:53;5.03;;;2.35;;
66429;SDS011;53242;51.694;10.006;2023-07-24T10:30:15;5.13;;;1.80;;
66429;SDS011;53242;51.694;10.006;2023-07-24T10:32:45;4.93;;;2.38;;
66429;SDS011;53242;51.694;10.006;2023-07-24T10:35:09;5.22;;;2.30;;
66429;SDS011;53242;51.694;10.006;2023-07-24T10:37:32;3.75;;;1.80;;
66429;SDS011;53242;51.694;10.006;2023-07-24T10:39:56;6.78;;;2.15;;
66429;SDS011;53242;51.694;10.006;2023-07-24T10:42:22;6.50;;;2.33;;
66429;SDS011;53242;51.694;10.006;2023-07-24T10:44:45;4.32;;;1.90;;
66429;SDS011;53242;51.694;10.006;2023-07-24T10:47:07;3.17;;;1.52;;
66429;SDS011;53242;51.694;10.006;2023-07-24T10:49:30;3.90;;;1.73;;
66429;SDS011;53242;51.694;10.006;2023-07-24T10:51:58;4.07;;;1.90;;
66429;SDS011;53242;51.694;10.006;2023-07-24T10:54:21;6.50;;;2.42;;
66429;SDS011;53242;51.694;10.006;2023-07-24T10:56:44;4.43;;;2.20;;
66429;SDS011;53242;51.694;10.006;2023-07-24T10:59:06;4.07;;;1.90;;
66429;SDS011;53242;51.694;10.006;2023-07-24T11:01:29;5.88;;;2.03;;
66429;SDS011;53242;51.694;10.006;2023-07-24T11:03:53;3.95;;;2.00;;
66429;SDS011;53242;51.694;10.006;2023-07-24T11:06:17;4.78;;;2.10;;
66429;SDS011;53242;51.694;10.006;2023-07-24T11:08:40;4.50;;;1.95;;
66429;SDS011;53242;51.694;10.006;2023-07-24T11:11:03;4.45;;;2.10;;
66429;SDS011;53242;51.694;10.006;2023-07-24T11:13:26;5.47;;;2.20;;
66429;SDS011;53242;51.694;10.006;2023-07-24T11:18:13;3.78;;;1.83;;
66429;SDS011;53242;51.694;10.006;2023-07-24T11:20:37;4.50;;;1.90;;
66429;SDS011;53242;51.694;10.006;2023-07-24T11:23:00;5.53;;;2.10;;
66429;SDS011;53242;51.694;10.006;2023-07-24T11:25:22;7.95;;;2.17;;
66429;SDS011;53242;51.694;10.006;2023-07-24T11:27:45;8.68;;;2.30;;
66429;SDS011;53242;51.694;10.006;2023-07-24T11:30:12;3.33;;;1.58;;
66429;SDS011;53242;51.694;10.006;2023-07-24T11:32:40;5.38;;;2.45;;
66429;SDS011;53242;51.694;10.006;2023-07-24T11:35:05;7.22;;;2.58;;
66429;SDS011;53242;51.694;10.006;2023-07-24T11:37:28;5.57;;;2.40;;
66429;SDS011;53242;51.694;10.006;2023-07-24T11:39:55;5.35;;;2.30;;
66429;SDS011;53242;51.694;10.006;2023-07-24T11:42:18;7.05;;;2.35;;
66429;SDS011;53242;51.694;10.006;2023-07-24T11:44:40;5.60;;;2.33;;
66429;SDS011;53242;51.694;10.006;2023-07-24T11:47:03;6.38;;;2.65;;
66429;SDS011;53242;51.694;10.006;2023-07-24T11:49:27;6.05;;;2.40;;
66429;SDS011;53242;51.694;10.006;2023-07-24T11:51:52;6.97;;;2.58;;
66429;SDS011;53242;51.694;10.006;2023-07-24T11:54:15;6.60;;;2.38;;
66429;SDS011;53242;51.694;10.006;2023-07-24T11:56:37;5.28;;;2.28;;
66429;SDS011;53242;51.694;10.006;2023-07-24T11:59:10;5.18;;;2.35;;
66429;SDS011;53242;51.694;10.006;2023-07-24T12:01:33;5.30;;;2.28;;
66429;SDS011;53242;51.694;10.006;2023-07-24T12:03:55;6.97;;;2.50;;
66429;SDS011;53242;51.694;10.006;2023-07-24T12:06:18;5.93;;;2.40;;
66429;SDS011;53242;51.694;10.006;2023-07-24T12:08:42;5.72;;;2.65;;
66429;SDS011;53242;51.694;10.006;2023-07-24T12:11:04;5.22;;;2.50;;
66429;SDS011;53242;51.694;10.006;2023-07-24T12:13:26;7.00;;;2.72;;
66429;SDS011;53242;51.694;10.006;2023-07-24T12:15:50;6.10;;;2.50;;
66429;SDS011;53242;51.694;10.006;2023-07-24T12:18:12;6.15;;;2.65;;
66429;SDS011;53242;51.694;10.006;2023-07-24T12:20:35;5.93;;;2.70;;
66429;SDS011;53242;51.694;10.006;2023-07-24T12:22:57;6.70;;;2.40;;
66429;SDS011;53242;51.694;10.006;2023-07-24T12:25:20;5.95;;;2.30;;
66429;SDS011;53242;51.694;10.006;2023-07-24T12:27:42;6.22;;;2.63;;
66429;SDS011;53242;51.694;10.006;2023-07-24T12:30:05;6.88;;;2.50;;
66429;SDS011;53242;51.694;10.006;2023-07-24T12:32:28;5.85;;;2.55;;
66429;SDS011;53242;51.694;10.006;2023-07-24T12:34:51;7.00;;;2.70;;
66429;SDS011;53242;51.694;10.006;2023-07-24T12:37:14;6.18;;;2.42;;
66429;SDS011;53242;51.694;10.006;2023-07-24T12:39:37;6.55;;;2.47;;
66429;SDS011;53242;51.694;10.006;2023-07-24T12:41:59;5.15;;;2.30;;
66429;SDS011;53242;51.694;10.006;2023-07-24T12:44:22;6.30;;;2.75;;
66429;SDS011;53242;51.694;10.006;2023-07-24T12:46:44;5.82;;;2.30;;
66429;SDS011;53242;51.694;10.006;2023-07-24T12:49:07;5.47;;;2.40;;
66429;SDS011;53242;51.694;10.006;2023-07-24T12:51:29;6.60;;;2.40;;
66429;SDS011;53242;51.694;10.006;2023-07-24T12:53:52;7.35;;;2.72;;
66429;SDS011;53242;51.694;10.006;2023-07-24T12:56:14;8.00;;;2.60;;
66429;SDS011;53242;51.694;10.006;2023-07-24T12:58:36;5.57;;;2.40;;
66429;SDS011;53242;51.694;10.006;2023-07-24T13:00:59;8.27;;;2.85;;
66429;SDS011;53242;51.694;10.006;2023-07-24T13:03:21;6.65;;;2.55;;
66429;SDS011;53242;51.694;10.006;2023-07-24T13:05:44;6.32;;;2.53;;
66429;SDS011;53242;51.694;10.006;2023-07-24T13:08:07;6.60;;;2.55;;
66429;SDS011;53242;51.694;10.006;2023-07-24T13:10:29;7.03;;;2.67;;
66429;SDS011;53242;51.694;10.006;2023-07-24T13:12:52;5.03;;;2.47;;
66429;SDS011;53242;51.694;10.006;2023-07-24T13:15:14;6.65;;;2.53;;
66429;SDS011;53242;51.694;10.006;2023-07-24T13:17:37;6.97;;;2.42;;
66429;SDS011;53242;51.694;10.006;2023-07-24T13:19:59;3.97;;;2.15;;
66429;SDS011;53242;51.694;10.006;2023-07-24T13:22:21;4.75;;;2.17;;
66429;SDS011;53242;51.694;10.006;2023-07-24T13:24:44;7.10;;;2.70;;
66429;SDS011;53242;51.694;10.006;2023-07-24T13:27:06;5.70;;;1.80;;
66429;SDS011;53242;51.694;10.006;2023-07-24T13:29:29;6.25;;;2.58;;
66429;SDS011;53242;51.694;10.006;2023-07-24T13:31:52;5.40;;;2.25;;
66429;SDS011;53242;51.694;10.006;2023-07-24T13:34:15;8.73;;;2.60;;
66429;SDS011;53242;51.694;10.006;2023-07-24T13:36:39;7.50;;;2.60;;
66429;SDS011;53242;51.694;10.006;2023-07-24T13:39:02;5.97;;;2.38;;
66429;SDS011;53242;51.694;10.006;2023-07-24T13:41:25;5.85;;;2.75;;
66429;SDS011;53242;51.694;10.006;2023-07-24T13:43:47;6.60;;;2.40;;
66429;SDS011;53242;51.694;10.006;2023-07-24T13:46:09;5.60;;;2.00;;
66429;SDS011;53242;51.694;10.006;2023-07-24T13:48:32;6.43;;;2.85;;
66429;SDS011;53242;51.694;10.006;2023-07-24T13:50:54;5.25;;;2.42;;
66429;SDS011;53242;51.694;10.006;2023-07-24T13:53:17;5.05;;;2.13;;
66429;SDS011;53242;51.694;10.006;2023-07-24T13:55:39;5.40;;;2.20;;
66429;SDS011;53242;51.694;10.006;2023-07-24T13:58:01;5.55;;;2.20;;
66429;SDS011;53242;51.694;10.006;2023-07-24T14:00:24;5.95;;;2.22;;
66429;SDS011;53242;51.694;10.006;2023-07-24T14:02:48;5.10;;;2.08;;
66429;SDS011;53242;51.694;10.006;2023-07-24T14:05:10;8.10;;;2.97;;
66429;SDS011;53242;51.694;10.006;2023-07-24T14:07:32;6.28;;;2.40;;
66429;SDS011;53242;51.694;10.006;2023-07-24T14:09:55;5.43;;;2.30;;
66429;SDS011;53242;51.694;10.006;2023-07-24T14:12:17;7.55;;;2.60;;
66429;SDS011;53242;51.694;10.006;2023-07-24T14:14:40;5.07;;;2.15;;
66429;SDS011;53242;51.694;10.006;2023-07-24T14:17:02;5.57;;;2.72;;
66429;SDS011;53242;51.694;10.006;2023-07-24T14:19:25;8.50;;;2.40;;
66429;SDS011;53242;51.694;10.006;2023-07-24T14:21:48;6.32;;;2.95;;